Time;durP1;ratioP1;P1;durP2;ratioP2;P2;SDS_P1;SDS_P2;PMS_P1;PMS_P2;Temp;Humidity;BMP_temperature;BMP_pressure;BME280_temperature;BME280_humidity;BME280_pressure;Samples;Min_cycle;Max_cycle;Signal;HPM_P1;HPM_P2
2022/01/25 00:31:10;;;;;;;61.13;54.42;;;15.70;55.90;;;;;;4987230;28;94740;-72
2022/01/25 00:33:38;;;;;;;61.05;54.40;;;15.60;55.80;;;;;;4986171;28;95944;-73
2022/01/25 00:36:07;;;;;;;60.97;54.20;;;15.60;56.00;;;;;;4993076;28;94708;-72
2022/01/25 00:38:33;;;;;;;60.20;53.60;;;15.60;55.80;;;;;;4988788;28;98283;-72
2022/01/25 00:40:59;;;;;;;60.85;54.35;;;15.60;55.90;;;;;;4988200;28;96372;-72
2022/01/25 00:43:27;;;;;;;60.35;53.75;;;15.60;56.00;;;;;;4996713;28;95633;-73
2022/01/25 00:45:56;;;;;;;61.03;53.70;;;15.60;56.10;;;;;;4961882;28;94626;-72
2022/01/25 00:48:32;;;;;;;59.33;52.70;;;15.50;55.70;;;;;;4984274;28;96885;-72
2022/01/25 00:51:15;;;;;;;59.40;52.90;;;15.60;55.90;;;;;;4984658;28;95118;-72
2022/01/25 00:53:58;;;;;;;59.40;52.97;;;15.60;55.80;;;;;;4982750;28;95781;-72
2022/01/25 00:56:31;;;;;;;60.03;53.47;;;15.50;56.20;;;;;;4996658;28;97781;-72
2022/01/25 00:59:01;;;;;;;60.78;54.17;;;15.40;55.90;;;;;;4965723;28;97094;-72
2022/01/25 01:01:27;;;;;;;60.92;54.05;;;15.40;56.20;;;;;;4992345;28;95398;-72
2022/01/25 01:03:54;;;;;;;60.33;53.78;;;15.40;56.00;;;;;;4993054;28;96803;-72
2022/01/25 01:06:20;;;;;;;59.33;52.97;;;15.30;56.10;;;;;;4989252;28;95975;-72
2022/01/25 01:08:46;;;;;;;61.55;54.75;;;15.20;56.30;;;;;;4997687;28;95038;-72
2022/01/25 01:11:19;;;;;;;61.17;54.40;;;15.20;56.70;;;;;;4987212;28;96367;-72
2022/01/25 01:35:45;;;;;;;60.40;53.83;;;14.90;56.20;;;;;;4972495;28;95675;-72
2022/01/25 01:43:37;;;;;;;59.80;52.55;;;14.90;57.00;;;;;;4967198;28;102129;-72
2022/01/25 01:48:49;;;;;;;61.13;54.53;;;14.80;56.80;;;;;;4966125;28;95318;-72
2022/01/25 01:51:24;;;;;;;63.15;55.97;;;14.80;56.90;;;;;;4971999;28;96050;-72
2022/01/25 01:53:51;;;;;;;59.55;52.80;;;14.70;57.30;;;;;;4970243;28;95758;-72
2022/01/25 01:56:17;;;;;;;65.15;55.78;;;14.70;56.80;;;;;;4954841;28;95866;-72
2022/01/25 01:58:42;;;;;;;60.42;53.83;;;14.70;57.20;;;;;;4951961;28;95306;-72
2022/01/25 02:01:12;;;;;;;60.55;53.97;;;14.70;57.20;;;;;;4975172;28;94913;-72
2022/01/25 02:03:38;;;;;;;61.30;54.38;;;14.70;57.00;;;;;;4979300;28;96980;-72
2022/01/25 02:06:04;;;;;;;60.75;54.17;;;14.70;57.20;;;;;;4974789;28;95446;-72
2022/01/25 02:08:30;;;;;;;62.30;54.97;;;14.60;56.50;;;;;;4969045;28;95156;-72
2022/01/25 02:11:06;;;;;;;57.53;51.22;;;14.60;57.20;;;;;;2649760;28;10098866;-72
2022/01/25 02:13:32;;;;;;;61.42;54.80;;;14.60;57.20;;;;;;2892471;28;10097029;-72
2022/01/25 02:16:02;;;;;;;60.85;54.30;;;14.70;57.10;;;;;;4970043;28;94880;-72
2022/01/25 02:23:56;;;;;;;60.55;54.05;;;14.90;56.80;;;;;;4970506;28;95788;-72
2022/01/25 02:26:22;;;;;;;62.17;55.38;;;14.90;56.80;;;;;;4969514;28;102434;-72
2022/01/25 02:28:47;;;;;;;59.80;53.38;;;15.00;56.60;;;;;;4953813;28;96245;-72
2022/01/25 02:31:16;;;;;;;60.72;53.88;;;15.00;56.30;;;;;;4987426;28;98269;-72
2022/01/25 02:33:42;;;;;;;62.25;54.75;;;15.00;56.30;;;;;;4987132;28;95617;-72
2022/01/25 02:36:11;;;;;;;60.83;54.25;;;15.00;56.20;;;;;;4985716;28;95231;-72
2022/01/25 02:38:38;;;;;;;60.20;53.70;;;15.00;56.00;;;;;;4993943;28;100877;-72
2022/01/25 02:41:04;;;;;;;60.92;54.33;;;15.00;56.30;;;;;;4996792;28;96330;-72
2022/01/25 02:43:30;;;;;;;59.67;53.22;;;15.10;56.00;;;;;;4975980;28;96374;-72
2022/01/25 02:48:55;;;;;;;59.88;53.38;;;15.00;56.50;;;;;;4989668;28;95275;-72
2022/01/25 02:51:24;;;;;;;61.35;54.60;;;15.00;56.20;;;;;;4991137;28;95272;-72
2022/01/25 02:53:50;;;;;;;60.45;53.95;;;15.00;56.60;;;;;;4994359;28;95412;-72
2022/01/25 02:56:17;;;;;;;59.47;53.08;;;14.90;55.80;;;;;;4996290;28;94696;-72
2022/01/25 02:58:44;;;;;;;59.42;53.08;;;14.90;55.70;;;;;;4984980;28;96168;-72
2022/01/25 03:01:10;;;;;;;60.85;54.03;;;14.80;56.30;;;;;;4990362;28;96575;-72
2022/01/25 03:03:37;;;;;;;59.92;53.42;;;14.80;56.10;;;;;;4990884;28;98575;-72
2022/01/25 03:06:03;;;;;;;60.35;53.70;;;14.80;56.60;;;;;;4986219;28;94859;-72
2022/01/25 03:08:28;;;;;;;58.38;52.13;;;14.80;56.60;;;;;;4999532;28;94751;-72
2022/01/25 03:10:54;;;;;;;59.92;53.38;;;14.70;56.30;;;;;;4985970;28;97366;-72
2022/01/25 03:13:25;;;;;;;60.30;53.80;;;14.60;56.20;;;;;;4986447;28;99877;-72
2022/01/25 03:21:03;;;;;;;60.88;54.42;;;14.70;56.70;;;;;;4997025;28;95300;-72
2022/01/25 03:23:31;;;;;;;60.85;53.90;;;14.70;56.40;;;;;;4989307;28;96338;-72
2022/01/25 03:25:57;;;;;;;59.38;53.05;;;14.70;56.60;;;;;;4978125;28;96439;-72
2022/01/25 03:28:22;;;;;;;61.22;54.50;;;14.60;56.40;;;;;;4993316;28;94140;-72
2022/01/25 03:30:49;;;;;;;60.47;53.95;;;14.60;56.60;;;;;;4983247;28;95773;-72
2022/01/25 03:33:16;;;;;;;59.97;53.47;;;14.60;56.30;;;;;;4994932;28;96041;-72
2022/01/25 03:35:42;;;;;;;59.83;53.33;;;14.50;56.80;;;;;;4996451;28;96338;-72
2022/01/25 03:38:08;;;;;;;60.63;53.38;;;14.40;56.80;;;;;;4993214;28;94739;-72
2022/01/25 03:40:34;;;;;;;59.05;52.65;;;14.40;57.00;;;;;;4973231;28;98925;-72
2022/01/25 03:43:01;;;;;;;59.33;53.03;;;14.40;56.90;;;;;;4989785;28;95260;-72
2022/01/25 03:45:33;;;;;;;61.45;54.70;;;14.50;56.50;;;;;;4987677;28;95257;-72
2022/01/25 03:50:39;;;;;;;59.33;52.90;;;14.60;56.80;;;;;;4990855;28;95510;-72
2022/01/25 03:53:06;;;;;;;60.78;53.17;;;14.70;56.70;;;;;;4995271;28;94580;-72
2022/01/25 03:55:31;;;;;;;60.25;53.65;;;14.70;56.30;;;;;;4986414;28;94975;-72
2022/01/25 03:57:57;;;;;;;61.30;54.25;;;14.70;56.20;;;;;;4990927;28;96151;-72
2022/01/25 04:00:23;;;;;;;59.90;53.40;;;14.80;56.40;;;;;;4988518;28;96593;-72
2022/01/25 04:02:57;;;;;;;60.97;54.38;;;14.80;56.00;;;;;;4994230;28;97956;-72
2022/01/25 04:05:35;;;;;;;60.60;53.97;;;14.90;56.20;;;;;;4996984;28;100032;-72
2022/01/25 04:08:01;;;;;;;60.83;54.13;;;14.90;55.70;;;;;;4985843;28;94905;-72
2022/01/25 04:10:26;;;;;;;61.03;54.25;;;15.00;55.90;;;;;;4971385;28;97148;-72
2022/01/25 04:12:52;;;;;;;61.33;54.60;;;14.90;55.70;;;;;;4995919;28;95995;-72
2022/01/25 04:15:18;;;;;;;59.65;53.28;;;14.90;56.00;;;;;;4987291;28;94708;-72
2022/01/25 04:17:48;;;;;;;62.45;55.55;;;15.00;55.50;;;;;;4991707;28;94414;-72
2022/01/25 04:20:20;;;;;;;60.50;53.90;;;15.00;55.80;;;;;;4985516;28;96139;-72
2022/01/25 04:25:30;;;;;;;61.80;55.10;;;15.10;55.30;;;;;;4991486;28;97828;-72
2022/01/25 04:27:55;;;;;;;61.53;54.85;;;15.00;55.40;;;;;;4990620;28;95221;-72
2022/01/25 04:30:22;;;;;;;62.40;55.60;;;15.00;55.30;;;;;;4992347;28;99198;-72
2022/01/25 04:32:52;;;;;;;61.30;54.42;;;15.00;55.50;;;;;;4971104;28;96647;-72
2022/01/25 04:52:16;;;;;;;60.58;53.92;;;14.80;55.50;;;;;;4986995;28;95821;-71
2022/01/25 04:54:32;;;;;;;61.75;54.58;;;14.70;56.00;;;;;;4977112;28;96045;-72
2022/01/25 04:59:39;;;;;;;61.15;54.55;;;14.60;55.70;;;;;;4989404;28;95251;-72
2022/01/25 05:02:14;;;;;;;62.63;55.80;;;14.60;56.00;;;;;;4991607;28;95661;-73
2022/01/25 05:04:49;;;;;;;60.92;54.25;;;14.60;56.20;;;;;;4994672;28;96177;-72
2022/01/25 05:09:46;;;;;;;60.85;54.25;;;15.10;56.10;;;;;;4996094;28;94732;-72
2022/01/25 05:12:12;;;;;;;61.70;55.00;;;15.40;55.40;;;;;;4994685;28;95691;-72
2022/01/25 05:14:54;;;;;;;60.70;54.20;;;15.80;54.80;;;;;;4990183;28;95431;-72
2022/01/25 05:17:29;;;;;;;61.47;54.85;;;16.10;54.10;;;;;;4996062;28;95887;-72
2022/01/25 05:22:29;;;;;;;61.30;54.15;;;16.70;53.30;;;;;;4991376;28;95703;-72
2022/01/25 05:24:55;;;;;;;58.50;52.22;;;17.10;53.30;;;;;;4991944;28;95910;-72
2022/01/25 05:27:29;;;;;;;59.10;52.78;;;17.20;51.90;;;;;;4992908;28;95680;-72
2022/01/25 05:29:54;;;;;;;59.83;53.33;;;17.20;51.70;;;;;;4994269;28;97037;-71
2022/01/25 05:32:20;;;;;;;60.95;54.25;;;17.30;51.60;;;;;;4984452;28;95196;-72
2022/01/25 05:34:46;;;;;;;59.38;52.92;;;17.40;51.30;;;;;;4975150;28;98110;-72
2022/01/25 05:37:11;;;;;;;59.72;53.30;;;17.50;51.50;;;;;;4991495;28;95333;-72
2022/01/25 05:39:37;;;;;;;59.90;53.50;;;17.50;51.50;;;;;;4997307;28;95688;-72
2022/01/25 05:42:26;;;;;;;59.83;53.35;;;17.50;51.30;;;;;;4992260;28;96648;-72
2022/01/25 05:45:17;;;;;;;59.67;53.15;;;17.60;51.10;;;;;;4989990;28;95973;-72
2022/01/25 05:47:44;;;;;;;60.08;53.55;;;17.60;51.10;;;;;;4984130;28;95157;-72
2022/01/25 05:50:10;;;;;;;60.78;54.17;;;17.60;50.90;;;;;;4983807;28;96004;-72
2022/01/25 05:52:35;;;;;;;61.28;54.67;;;17.60;51.30;;;;;;4994279;28;95431;-72
2022/01/25 05:55:02;;;;;;;60.70;54.13;;;17.60;51.10;;;;;;4989787;28;94891;-72
2022/01/25 05:57:27;;;;;;;60.88;54.28;;;17.50;50.80;;;;;;4986459;28;95487;-72
2022/01/25 05:59:54;;;;;;;60.45;53.83;;;17.50;50.90;;;;;;4997175;28;94325;-73
2022/01/25 06:02:22;;;;;;;59.38;52.92;;;17.40;50.90;;;;;;4989680;28;95490;-73
2022/01/25 06:04:48;;;;;;;59.95;53.42;;;17.40;51.30;;;;;;4988471;28;96967;-75
2022/01/25 06:07:14;;;;;;;60.50;53.95;;;17.40;51.30;;;;;;4996745;28;98009;-75
2022/01/25 06:09:41;;;;;;;62.08;55.03;;;17.30;51.30;;;;;;4988234;28;98210;-75
2022/01/25 06:12:08;;;;;;;59.55;53.10;;;17.30;51.10;;;;;;4991651;28;100018;-74
2022/01/25 06:14:33;;;;;;;65.70;56.63;;;17.30;51.20;;;;;;4973253;28;96239;-76
2022/01/25 06:16:59;;;;;;;63.15;54.30;;;17.10;51.10;;;;;;4986021;28;95841;-76
2022/01/25 06:19:25;;;;;;;62.38;54.47;;;17.00;51.80;;;;;;4986631;28;98169;-73
2022/01/25 06:22:10;;;;;;;56.67;49.45;;;17.10;52.00;;;;;;1945998;28;10101884;-73
2022/01/25 06:24:36;;;;;;;59.95;53.20;;;17.10;51.40;;;;;;3945846;28;10093654;-73
2022/01/25 06:27:02;;;;;;;63.38;56.03;;;17.10;51.60;;;;;;4981088;28;96375;-74
2022/01/25 06:29:27;;;;;;;61.88;55.08;;;17.00;52.00;;;;;;4984846;28;96144;-76
2022/01/25 06:31:53;;;;;;;62.78;55.33;;;17.00;51.80;;;;;;4964319;28;100463;-74
2022/01/25 06:34:19;;;;;;;64.65;56.03;;;17.00;51.50;;;;;;4947915;28;95359;-75
2022/01/25 06:36:47;;;;;;;62.75;54.75;;;16.90;52.20;;;;;;4963959;28;96764;-74
2022/01/25 06:39:12;;;;;;;61.30;54.17;;;16.90;51.90;;;;;;4954961;28;97763;-74
2022/01/25 06:41:38;;;;;;;62.60;55.78;;;16.90;51.60;;;;;;4967598;28;95499;-75
2022/01/25 06:44:05;;;;;;;64.20;56.28;;;16.90;52.20;;;;;;4972945;28;95503;-73
2022/01/25 06:46:31;;;;;;;62.70;54.75;;;17.00;51.70;;;;;;4971514;28;95302;-73
2022/01/25 06:48:56;;;;;;;61.38;54.47;;;17.00;51.90;;;;;;4971076;28;99585;-73
2022/01/25 06:51:22;;;;;;;63.53;55.53;;;17.10;51.40;;;;;;4969950;28;95182;-73
2022/01/25 06:53:47;;;;;;;63.83;56.65;;;17.10;51.20;;;;;;4968277;28;95941;-75
2022/01/25 06:56:13;;;;;;;64.10;55.08;;;17.10;51.60;;;;;;4949583;28;97869;-74
2022/01/25 06:58:41;;;;;;;63.20;56.08;;;17.10;50.80;;;;;;4964999;28;95226;-75
2022/01/25 07:01:07;;;;;;;65.75;54.83;;;17.10;51.30;;;;;;4943512;28;101840;-76
2022/01/25 07:03:32;;;;;;;62.58;55.13;;;16.90;51.80;;;;;;4968206;28;95880;-76
2022/01/25 07:05:58;;;;;;;64.65;55.30;;;16.80;52.80;;;;;;4965028;28;95879;-76
2022/01/25 07:08:24;;;;;;;64.93;56.35;;;16.80;53.30;;;;;;4968945;28;95094;-76
2022/01/25 07:10:49;;;;;;;65.88;55.72;;;16.80;53.50;;;;;;4966382;28;98438;-76
2022/01/25 07:13:15;;;;;;;63.33;56.40;;;16.80;53.10;;;;;;4971780;28;96572;-76
2022/01/25 07:15:41;;;;;;;64.10;54.35;;;16.90;52.90;;;;;;4959176;28;95284;-78
2022/01/25 07:18:06;;;;;;;63.88;55.15;;;16.80;52.20;;;;;;4931843;28;96654;-77
2022/01/25 07:20:35;;;;;;;63.83;55.33;;;16.90;52.40;;;;;;4933207;28;97572;-77
2022/01/25 07:23:01;;;;;;;65.47;56.28;;;16.80;52.00;;;;;;4951872;28;95273;-77
2022/01/25 07:25:26;;;;;;;63.80;54.90;;;16.80;52.50;;;;;;4937347;28;99116;-77
2022/01/25 07:27:52;;;;;;;65.28;54.90;;;16.80;51.60;;;;;;4964841;28;95479;-76
2022/01/25 07:30:18;;;;;;;67.05;56.03;;;16.90;51.30;;;;;;4961146;28;100571;-75
2022/01/25 07:32:44;;;;;;;66.32;55.03;;;16.90;50.90;;;;;;4959627;28;95232;-75
2022/01/25 07:35:10;;;;;;;66.50;55.08;;;16.90;50.80;;;;;;4975536;28;95735;-77
2022/01/25 07:37:36;;;;;;;66.40;56.47;;;16.80;51.00;;;;;;4970213;28;96347;-76
2022/01/25 07:40:03;;;;;;;66.22;55.40;;;16.70;51.10;;;;;;4982036;28;95561;-76
2022/01/25 07:42:33;;;;;;;65.63;56.50;;;16.80;51.20;;;;;;4976507;28;95622;-78
2022/01/25 07:44:58;;;;;;;65.68;55.65;;;16.90;51.00;;;;;;4971871;28;97927;-75
2022/01/25 07:47:24;;;;;;;63.42;55.53;;;16.70;51.40;;;;;;4987884;28;95550;-76
2022/01/25 07:49:50;;;;;;;65.50;56.38;;;16.80;51.30;;;;;;4980961;28;95660;-76
2022/01/25 07:52:16;;;;;;;67.07;57.05;;;16.80;51.70;;;;;;4973580;28;98656;-75
2022/01/25 07:54:42;;;;;;;65.20;56.03;;;16.70;52.00;;;;;;4981425;28;95955;-76
2022/01/25 07:57:08;;;;;;;65.05;55.92;;;16.70;51.90;;;;;;4973010;28;95848;-76
2022/01/25 07:59:33;;;;;;;65.00;56.47;;;16.60;51.40;;;;;;4970785;28;96431;-76
2022/01/25 08:01:59;;;;;;;68.50;57.20;;;16.50;52.00;;;;;;4960829;28;95118;-77
2022/01/25 08:04:25;;;;;;;64.78;56.80;;;16.50;52.40;;;;;;4975492;28;96603;-77
2022/01/25 08:06:51;;;;;;;69.45;57.08;;;16.50;52.60;;;;;;4978770;28;95076;-76
2022/01/25 08:09:17;;;;;;;68.82;57.22;;;16.40;52.10;;;;;;4983763;28;96105;-76
2022/01/25 08:11:43;;;;;;;68.40;57.20;;;16.20;52.80;;;;;;4965464;28;96073;-78
2022/01/25 08:14:19;;;;;;;64.70;56.25;;;16.20;53.10;;;;;;4975468;28;98590;-78
2022/01/25 08:16:47;;;;;;;68.85;57.03;;;16.10;53.20;;;;;;4982161;28;95937;-76
2022/01/25 08:19:20;;;;;;;65.90;56.70;;;16.00;53.50;;;;;;4973788;28;94798;-77
2022/01/25 08:21:47;;;;;;;66.63;57.38;;;16.00;53.90;;;;;;4974111;28;101408;-76
2022/01/25 08:24:15;;;;;;;67.05;56.65;;;16.10;54.20;;;;;;4977209;28;95444;-76
2022/01/25 08:26:44;;;;;;;65.70;56.10;;;16.10;53.60;;;;;;4967800;28;96505;-76
2022/01/25 08:29:10;;;;;;;68.38;58.28;;;16.20;53.90;;;;;;4964094;28;96231;-76
2022/01/25 08:31:37;;;;;;;65.88;57.22;;;16.40;53.90;;;;;;4982598;28;96584;-76
2022/01/25 08:34:02;;;;;;;68.68;55.97;;;16.60;54.20;;;;;;4947638;28;98009;-77
2022/01/25 08:36:28;;;;;;;69.00;56.38;;;16.80;53.50;;;;;;4964891;28;97042;-77
2022/01/25 08:38:54;;;;;;;65.43;56.15;;;17.00;52.60;;;;;;4967179;28;95188;-77
2022/01/25 08:41:20;;;;;;;63.33;55.40;;;17.20;53.10;;;;;;4977400;28;98051;-76
2022/01/25 08:43:47;;;;;;;64.43;55.53;;;17.50;52.40;;;;;;4959145;28;97342;-76
2022/01/25 08:46:16;;;;;;;63.90;56.05;;;17.70;52.10;;;;;;4985120;28;98619;-78
2022/01/25 08:48:42;;;;;;;65.20;56.05;;;17.70;51.60;;;;;;4964079;28;95195;-77
2022/01/25 08:51:08;;;;;;;64.40;56.17;;;17.70;51.40;;;;;;4981787;28;95240;-78
2022/01/25 08:53:35;;;;;;;64.28;56.40;;;17.70;50.90;;;;;;4984904;28;94673;-77
2022/01/25 08:56:01;;;;;;;64.85;56.30;;;17.70;51.20;;;;;;4982701;28;96194;-77
2022/01/25 08:58:27;;;;;;;63.72;55.78;;;17.80;50.80;;;;;;4968393;28;97085;-78
2022/01/25 09:00:53;;;;;;;65.07;56.03;;;17.90;50.90;;;;;;4969723;28;97078;-76
2022/01/25 09:03:19;;;;;;;70.53;56.75;;;17.90;50.50;;;;;;4981582;28;102396;-76
2022/01/25 09:05:45;;;;;;;68.88;57.35;;;17.90;50.60;;;;;;4978197;28;96386;-75
2022/01/25 09:08:16;;;;;;;66.40;57.55;;;17.90;50.10;;;;;;4957192;28;96346;-77
2022/01/25 09:10:42;;;;;;;66.15;56.63;;;17.60;50.50;;;;;;4979424;28;95929;-75
2022/01/25 09:13:08;;;;;;;66.43;56.90;;;17.40;51.30;;;;;;4979202;28;95980;-75
2022/01/25 09:15:34;;;;;;;65.15;56.78;;;17.40;51.60;;;;;;4977449;28;95714;-76
2022/01/25 09:18:19;;;;;;;66.41;56.73;;;17.80;51.90;;;;;;4542667;28;10001232;-76
2022/01/25 09:20:45;;;;;;;64.72;56.67;;;17.90;50.70;;;;;;1338031;28;10098092;-77
2022/01/25 09:23:11;;;;;;;62.22;54.83;;;17.90;51.00;;;;;;4976310;28;96263;-76
2022/01/25 09:25:36;;;;;;;65.60;56.30;;;17.90;51.00;;;;;;4980790;28;95682;-76
2022/01/25 09:28:03;;;;;;;65.60;56.33;;;17.90;50.30;;;;;;4978845;28;96048;-75
2022/01/25 09:30:29;;;;;;;65.10;55.60;;;17.70;51.20;;;;;;4974025;28;97008;-75
2022/01/25 09:32:58;;;;;;;63.75;55.80;;;17.50;51.00;;;;;;4970283;28;95623;-74
2022/01/25 09:35:24;;;;;;;64.75;56.58;;;17.50;51.80;;;;;;4984461;28;98014;-74
2022/01/25 09:37:51;;;;;;;63.55;55.35;;;17.50;51.40;;;;;;4975766;28;100574;-74
2022/01/25 09:40:17;;;;;;;62.67;55.78;;;17.40;51.90;;;;;;4942961;28;98411;-73
2022/01/25 09:42:44;;;;;;;63.78;56.05;;;17.20;52.40;;;;;;4978826;28;96471;-74
2022/01/25 09:45:10;;;;;;;64.40;55.47;;;17.30;52.40;;;;;;4963390;28;102030;-74
2022/01/25 09:47:39;;;;;;;65.70;55.17;;;17.40;52.10;;;;;;4964046;28;98585;-74
2022/01/25 09:50:06;;;;;;;63.80;55.97;;;17.60;52.60;;;;;;4964921;28;98260;-75
2022/01/25 09:52:32;;;;;;;63.25;55.60;;;17.50;51.80;;;;;;4980889;28;96912;-73
2022/01/25 09:55:01;;;;;;;62.70;55.53;;;17.30;52.00;;;;;;4975368;28;95467;-75
2022/01/25 09:57:26;;;;;;;63.35;55.03;;;17.20;52.30;;;;;;4977614;28;96314;-74
2022/01/25 09:59:56;;;;;;;62.35;55.50;;;17.30;53.20;;;;;;4955398;28;96697;-73
2022/01/25 10:03:16;;;;;;;66.85;55.60;;;17.50;52.70;;;;;;4956190;28;95584;-74
2022/01/25 10:05:46;;;;;;;62.22;54.83;;;17.30;53.30;;;;;;4912987;28;95369;-74
2022/01/25 10:08:20;;;;;;;66.23;56.70;;;17.40;53.00;;;;;;4954471;28;97932;-75
2022/01/25 10:10:53;;;;;;;64.55;55.88;;;17.40;52.50;;;;;;4955211;28;96748;-74
2022/01/25 10:13:56;;;;;;;62.17;54.78;;;17.40;53.00;;;;;;4969375;28;96685;-74
2022/01/25 10:16:33;;;;;;;63.97;55.25;;;17.30;52.60;;;;;;4972452;28;95459;-74
2022/01/25 10:19:10;;;;;;;63.95;56.22;;;17.20;52.80;;;;;;4958115;28;96192;-76
2022/01/25 10:21:49;;;;;;;64.47;56.50;;;17.10;52.10;;;;;;4975046;28;96126;-76
2022/01/25 10:24:14;;;;;;;63.90;55.47;;;17.10;51.10;;;;;;4972344;28;96656;-77
2022/01/25 10:26:53;;;;;;;64.45;55.22;;;17.00;51.40;;;;;;4967586;28;95568;-77
2022/01/25 10:29:29;;;;;;;64.57;56.30;;;17.00;51.30;;;;;;4955348;28;95512;-77
2022/01/25 10:32:15;;;;;;;63.30;55.42;;;17.00;51.10;;;;;;4965525;28;96709;-77
2022/01/25 10:34:45;;;;;;;63.58;55.58;;;17.20;50.70;;;;;;4979032;28;97196;-76
2022/01/25 10:37:18;;;;;;;62.28;54.33;;;17.20;51.30;;;;;;4974371;28;96973;-77
2022/01/25 10:39:46;;;;;;;63.78;55.42;;;17.40;50.90;;;;;;4974450;28;99332;-76
2022/01/25 10:42:34;;;;;;;64.32;54.65;;;17.70;50.20;;;;;;4980062;28;97917;-76
2022/01/25 10:45:17;;;;;;;63.63;55.13;;;17.80;50.00;;;;;;4957882;28;95965;-76
2022/01/25 10:47:42;;;;;;;66.95;54.97;;;17.90;49.80;;;;;;4978847;28;96599;-75
2022/01/25 10:50:15;;;;;;;63.15;55.08;;;18.00;49.40;;;;;;4962293;28;97102;-77
2022/01/25 10:52:42;;;;;;;65.28;54.85;;;18.20;49.00;;;;;;4970639;28;95732;-77
2022/01/25 10:55:09;;;;;;;63.50;54.55;;;18.20;49.30;;;;;;4964402;28;94956;-76
2022/01/25 10:57:35;;;;;;;63.00;55.88;;;18.20;49.10;;;;;;4973927;28;94642;-79
2022/01/25 11:00:07;;;;;;;65.10;55.97;;;18.20;48.60;;;;;;4970738;28;98639;-77
2022/01/25 11:02:33;;;;;;;64.45;55.30;;;18.10;49.10;;;;;;4973408;28;95989;-77
2022/01/25 11:05:07;;;;;;;65.72;55.35;;;18.30;48.60;;;;;;4973463;28;96317;-78
2022/01/25 11:07:38;;;;;;;66.43;56.03;;;18.10;48.50;;;;;;4974791;28;95813;-78
2022/01/25 11:10:05;;;;;;;65.82;55.85;;;18.10;49.20;;;;;;4973958;28;95475;-77
2022/01/25 11:12:46;;;;;;;67.07;55.90;;;18.20;49.00;;;;;;5032985;27;88256;-76
2022/01/25 11:15:12;;;;;;;65.22;56.28;;;18.10;48.60;;;;;;5033173;27;88199;-76
2022/01/25 11:17:39;;;;;;;65.97;56.08;;;18.00;48.00;;;;;;5044696;27;89663;-76
2022/01/25 11:20:06;;;;;;;67.00;56.72;;;18.00;48.30;;;;;;5037302;27;86654;-75
2022/01/25 11:22:32;;;;;;;66.70;56.60;;;17.90;48.40;;;;;;5034977;27;87350;-76
2022/01/25 11:25:00;;;;;;;63.35;56.17;;;17.90;48.20;;;;;;5037483;27;87435;-76
2022/01/25 11:27:29;;;;;;;64.13;56.25;;;17.90;48.40;;;;;;5033650;27;87800;-77
2022/01/25 11:30:08;;;;;;;64.20;56.60;;;17.90;47.60;;;;;;5031803;27;86426;-77
2022/01/25 11:32:40;;;;;;;64.03;56.38;;;17.90;47.90;;;;;;5034908;27;85883;-77
2022/01/25 11:35:10;;;;;;;66.25;56.10;;;18.00;47.40;;;;;;5005481;27;87786;-78
2022/01/25 11:37:42;;;;;;;65.45;56.05;;;17.90;47.60;;;;;;5033437;27;86862;-78
2022/01/25 11:40:28;;;;;;;68.13;56.25;;;17.90;47.70;;;;;;5039135;27;85784;-79
2022/01/25 11:42:57;;;;;;;66.05;56.35;;;18.00;47.70;;;;;;5028697;27;86477;-79
2022/01/25 11:45:31;;;;;;;64.60;55.60;;;17.90;47.70;;;;;;5015575;27;88138;-77
2022/01/25 11:47:58;;;;;;;64.47;55.72;;;17.90;47.80;;;;;;5031113;27;86851;-78
2022/01/25 11:50:27;;;;;;;66.68;56.22;;;17.90;48.10;;;;;;5031761;27;88108;-77
2022/01/25 11:52:55;;;;;;;64.20;55.00;;;17.90;47.80;;;;;;5040508;27;85870;-77
2022/01/25 11:55:30;;;;;;;65.32;55.20;;;17.80;48.00;;;;;;5038713;27;87529;-77
2022/01/25 11:58:01;;;;;;;63.35;55.58;;;17.90;48.10;;;;;;5028807;27;87400;-76
2022/01/25 12:01:01;;;;;;;64.82;55.85;;;17.90;47.40;;;;;;5033563;27;87647;-76
2022/01/25 12:15:22;;;;;;;65.00;54.92;;;17.80;48.30;;;;;;4940683;28;85767;-76
2022/01/25 12:17:53;;;;;;;64.43;55.70;;;17.90;47.90;;;;;;4929668;28;91084;-76
2022/01/25 12:31:42;;;;;;;81.03;66.57;;;17.40;49.10;;;;;;5003540;22;85527;-77
2022/01/25 13:02:07;;;;;;;68.53;57.35;;;17.70;47.90;;;;;;4822956;28;86276;-78
2022/01/25 13:51:57;;;;;;;66.35;56.65;;;17.70;48.20;;;;;;4887847;28;86811;-77
2022/01/25 13:55:10;;;;;;;66.70;55.60;;;17.90;48.10;;;;;;4797293;29;87888;-76
2022/01/25 14:27:50;;;;;;;60.10;53.80;;;18.50;46.50;;;;;;4923087;28;86001;-76
2022/01/25 14:30:19;;;;;;;59.50;53.10;;;18.60;46.40;;;;;;4946837;28;85859;-75
2022/01/25 14:33:11;;;;;;;64.40;57.40;;;18.60;47.90;;;;;;4954911;28;86693;-73
2022/01/25 14:36:00;;;;;;;68.68;60.42;;;19.20;44.20;;;;;;4954796;28;86706;-73
2022/01/25 14:38:31;;;;;;;67.80;59.08;;;19.10;42.90;;;;;;4941728;28;85956;-76
2022/01/25 14:41:17;;;;;;;65.67;58.17;;;18.70;43.20;;;;;;4953543;28;85356;-74
2022/01/25 14:43:54;;;;;;;64.63;56.65;;;18.50;43.10;;;;;;4952069;28;86277;-74
2022/01/25 14:46:35;;;;;;;64.50;57.50;;;18.40;43.40;;;;;;4978751;28;86193;-74
2022/01/25 14:49:14;;;;;;;63.72;55.97;;;18.40;43.80;;;;;;4976030;28;85619;-75
2022/01/25 14:52:01;;;;;;;61.70;55.20;;;18.40;43.90;;;;;;4974188;28;87563;-75
2022/01/25 14:54:29;;;;;;;61.72;55.05;;;18.40;44.10;;;;;;4974876;28;88998;-75
2022/01/25 14:56:58;;;;;;;61.65;55.13;;;18.40;44.20;;;;;;4961494;28;91370;-72
2022/01/25 14:59:31;;;;;;;62.90;54.05;;;18.40;44.70;;;;;;4959045;28;86299;-78
2022/01/25 15:02:08;;;;;;;62.60;55.05;;;18.30;45.10;;;;;;4970789;28;87308;-73
2022/01/25 15:04:40;;;;;;;59.50;53.25;;;18.30;45.20;;;;;;4969323;28;86870;-76
2022/01/25 15:07:11;;;;;;;60.60;54.10;;;18.40;45.20;;;;;;4963089;28;85775;-74
2022/01/25 15:09:47;;;;;;;60.67;54.05;;;18.40;45.40;;;;;;4978531;28;85630;-74
2022/01/25 15:12:13;;;;;;;60.60;54.03;;;18.30;45.40;;;;;;4964780;28;85107;-74
2022/01/25 15:14:50;;;;;;;63.10;54.05;;;18.30;45.50;;;;;;4976393;28;86060;-74
2022/01/25 15:17:16;;;;;;;59.47;53.28;;;18.30;45.60;;;;;;4966679;28;86562;-75
2022/01/25 15:19:42;;;;;;;60.58;53.78;;;18.20;46.00;;;;;;4975641;28;86627;-74
2022/01/25 15:22:08;;;;;;;60.45;53.85;;;18.20;46.40;;;;;;4965480;28;86052;-74
2022/01/25 15:24:34;;;;;;;59.95;53.50;;;18.20;46.60;;;;;;4967930;28;86143;-74
2022/01/25 15:27:06;;;;;;;59.33;52.97;;;18.20;46.10;;;;;;4969671;28;86301;-76
2022/01/25 15:29:43;;;;;;;53.32;47.52;;;18.20;46.10;;;;;;3028801;28;10082788;-73
2022/01/25 15:32:09;;;;;;;59.88;53.47;;;18.10;46.40;;;;;;2515524;28;10086969;-74
2022/01/25 15:34:39;;;;;;;59.22;52.95;;;18.10;46.30;;;;;;4902677;28;87164;-73
2022/01/25 15:37:06;;;;;;;60.80;53.83;;;18.10;46.60;;;;;;4910294;28;87058;-74
2022/01/25 15:39:32;;;;;;;59.65;53.05;;;18.10;46.60;;;;;;4906393;28;87693;-74
2022/01/25 15:42:08;;;;;;;63.20;53.53;;;18.00;46.60;;;;;;4901965;28;85852;-75
2022/01/25 15:44:41;;;;;;;64.00;53.78;;;18.00;47.30;;;;;;4909893;28;87883;-75
2022/01/25 15:47:09;;;;;;;63.40;53.30;;;18.10;47.00;;;;;;4896276;28;85815;-76
2022/01/25 15:49:38;;;;;;;97.13;60.03;;;18.10;47.20;;;;;;4882966;28;86011;-77
2022/01/25 15:52:04;;;;;;;66.22;54.70;;;18.10;46.90;;;;;;4905663;28;86798;-81
2022/01/25 15:54:30;;;;;;;66.55;54.55;;;18.10;47.30;;;;;;4910744;28;85266;-79
2022/01/25 15:57:00;;;;;;;65.35;54.72;;;18.10;47.30;;;;;;4911255;28;86678;-82
2022/01/25 15:59:26;;;;;;;63.72;54.17;;;18.20;47.10;;;;;;4916994;28;86876;-79
2022/01/25 16:01:57;;;;;;;73.47;55.80;;;18.10;47.10;;;;;;4902207;28;87434;-79
2022/01/25 16:04:26;;;;;;;69.10;55.28;;;18.10;47.10;;;;;;4908526;28;86411;-79
2022/01/25 16:06:52;;;;;;;67.05;56.10;;;18.00;47.20;;;;;;4914344;28;85667;-78
2022/01/25 16:09:18;;;;;;;68.93;56.58;;;18.10;47.50;;;;;;4900535;28;86117;-78
2022/01/25 16:11:55;;;;;;;64.15;54.97;;;18.00;48.40;;;;;;4910498;28;86735;-79
2022/01/25 16:14:26;;;;;;;68.93;55.72;;;17.80;48.50;;;;;;4945841;28;88475;-77
2022/01/25 16:17:01;;;;;;;65.05;54.03;;;17.70;49.50;;;;;;4917689;28;85856;-77
2022/01/25 16:19:26;;;;;;;68.90;56.03;;;17.60;50.10;;;;;;4917819;28;87452;-78
2022/01/25 16:21:52;;;;;;;65.00;55.13;;;17.60;50.40;;;;;;4919970;28;85126;-78
2022/01/25 16:24:27;;;;;;;68.40;55.25;;;17.50;50.90;;;;;;4919735;28;86498;-77
2022/01/25 16:26:56;;;;;;;70.53;55.83;;;17.60;51.10;;;;;;4916531;28;91411;-80
2022/01/25 16:29:24;;;;;;;69.90;56.53;;;17.50;51.10;;;;;;4928983;28;85664;-81